sensor_id;sensor_type;location;lat;lon;timestamp;pressure;altitude;pressure_sealevel;temperature;humidity
29549;BME280;16487;53.094;8.800;2023-05-29T00:01:58;102493.25;;;15.27;100.00
29549;BME280;16487;53.094;8.800;2023-05-29T00:04:26;102487.69;;;15.63;100.00
29549;BME280;16487;53.094;8.800;2023-05-29T00:06:55;102487.44;;;15.18;100.00
29549;BME280;16487;53.094;8.800;2023-05-29T00:09:22;102492.41;;;15.11;100.00
29549;BME280;16487;53.094;8.800;2023-05-29T00:11:52;102490.28;;;15.34;100.00
29549;BME280;16487;53.094;8.800;2023-05-29T00:14:20;102483.13;;;14.94;100.00
29549;BME280;16487;53.094;8.800;2023-05-29T00:16:47;102489.59;;;15.30;100.00
29549;BME280;16487;53.094;8.800;2023-05-29T00:19:15;102495.00;;;15.21;100.00
29549;BME280;16487;53.094;8.800;2023-05-29T00:21:43;102493.97;;;15.31;100.00
29549;BME280;16487;53.094;8.800;2023-05-29T00:24:15;102497.03;;;15.40;100.00
29549;BME280;16487;53.094;8.800;2023-05-29T00:26:43;102497.38;;;15.42;100.00
29549;BME280;16487;53.094;8.800;2023-05-29T00:29:10;102505.47;;;15.40;100.00
29549;BME280;16487;53.094;8.800;2023-05-29T00:31:37;102496.94;;;15.24;100.00
29549;BME280;16487;53.094;8.800;2023-05-29T00:34:05;102502.97;;;15.03;100.00
29549;BME280;16487;53.094;8.800;2023-05-29T00:36:35;102502.84;;;15.49;100.00
29549;BME280;16487;53.094;8.800;2023-05-29T00:39:02;102510.59;;;14.83;100.00
29549;BME280;16487;53.094;8.800;2023-05-29T00:41:31;102510.31;;;15.36;100.00
29549;BME280;16487;53.094;8.800;2023-05-29T00:43:58;102509.31;;;15.07;100.00
29549;BME280;16487;53.094;8.800;2023-05-29T00:46:26;102517.41;;;14.62;100.00
29549;BME280;16487;53.094;8.800;2023-05-29T00:48:54;102518.72;;;14.77;100.00
29549;BME280;16487;53.094;8.800;2023-05-29T00:51:21;102519.16;;;14.53;100.00
29549;BME280;16487;53.094;8.800;2023-05-29T00:53:50;102514.63;;;14.82;100.00
29549;BME280;16487;53.094;8.800;2023-05-29T00:56:18;102518.00;;;14.93;100.00
29549;BME280;16487;53.094;8.800;2023-05-29T00:58:49;102519.50;;;14.78;100.00
29549;BME280;16487;53.094;8.800;2023-05-29T01:01:18;102522.50;;;14.67;100.00
29549;BME280;16487;53.094;8.800;2023-05-29T01:03:46;102515.63;;;14.91;100.00
29549;BME280;16487;53.094;8.800;2023-05-29T01:06:14;102530.81;;;14.74;100.00
29549;BME280;16487;53.094;8.800;2023-05-29T01:08:44;102536.34;;;14.55;100.00
29549;BME280;16487;53.094;8.800;2023-05-29T01:11:18;102529.91;;;14.35;100.00
29549;BME280;16487;53.094;8.800;2023-05-29T01:13:52;102528.69;;;14.59;100.00
29549;BME280;16487;53.094;8.800;2023-05-29T01:16:31;102529.34;;;14.43;100.00
29549;BME280;16487;53.094;8.800;2023-05-29T01:19:15;102521.69;;;14.90;100.00
29549;BME280;16487;53.094;8.800;2023-05-29T01:21:58;102530.75;;;14.55;100.00
29549;BME280;16487;53.094;8.800;2023-05-29T01:24:38;102547.94;;;14.57;100.00
29549;BME280;16487;53.094;8.800;2023-05-29T01:27:12;102547.47;;;14.39;100.00
29549;BME280;16487;53.094;8.800;2023-05-29T01:29:43;102540.38;;;14.31;100.00
29549;BME280;16487;53.094;8.800;2023-05-29T01:32:11;102540.31;;;14.34;100.00
29549;BME280;16487;53.094;8.800;2023-05-29T01:34:38;102539.16;;;14.55;100.00
29549;BME280;16487;53.094;8.800;2023-05-29T01:37:05;102538.44;;;14.51;100.00
29549;BME280;16487;53.094;8.800;2023-05-29T01:39:33;102537.75;;;14.43;100.00
29549;BME280;16487;53.094;8.800;2023-05-29T01:42:02;102538.44;;;14.51;100.00
29549;BME280;16487;53.094;8.800;2023-05-29T01:44:33;102532.09;;;14.47;100.00
29549;BME280;16487;53.094;8.800;2023-05-29T01:47:02;102538.44;;;14.51;100.00
29549;BME280;16487;53.094;8.800;2023-05-29T01:49:31;102534.22;;;14.62;100.00
29549;BME280;16487;53.094;8.800;2023-05-29T01:52:01;102538.44;;;14.51;100.00
29549;BME280;16487;53.094;8.800;2023-05-29T01:54:28;102552.28;;;14.38;100.00
29549;BME280;16487;53.094;8.800;2023-05-29T01:56:56;102548.31;;;14.36;100.00
29549;BME280;16487;53.094;8.800;2023-05-29T01:59:24;102547.94;;;14.57;100.00
29549;BME280;16487;53.094;8.800;2023-05-29T02:01:53;102546.63;;;14.42;100.00
29549;BME280;16487;53.094;8.800;2023-05-29T02:04:21;102546.88;;;14.51;100.00
29549;BME280;16487;53.094;8.800;2023-05-29T02:06:49;102551.84;;;14.40;100.00
29549;BME280;16487;53.094;8.800;2023-05-29T02:09:16;102554.91;;;14.49;100.00
29549;BME280;16487;53.094;8.800;2023-05-29T02:11:44;102552.34;;;14.35;100.00
29549;BME280;16487;53.094;8.800;2023-05-29T02:14:11;102557.28;;;14.24;100.00
29549;BME280;16487;53.094;8.800;2023-05-29T02:16:39;102550.09;;;14.72;100.00
29549;BME280;16487;53.094;8.800;2023-05-29T02:19:07;102562.75;;;14.08;100.00
29549;BME280;16487;53.094;8.800;2023-05-29T02:21:38;102564.09;;;14.26;100.00
29549;BME280;16487;53.094;8.800;2023-05-29T02:24:06;102572.69;;;14.12;100.00
29549;BME280;16487;53.094;8.800;2023-05-29T02:26:34;102564.88;;;14.27;100.00
29549;BME280;16487;53.094;8.800;2023-05-29T02:29:01;102561.97;;;14.34;100.00
29549;BME280;16487;53.094;8.800;2023-05-29T02:31:29;102564.03;;;14.30;100.00
29549;BME280;16487;53.094;8.800;2023-05-29T02:33:57;102565.13;;;14.36;100.00
29549;BME280;16487;53.094;8.800;2023-05-29T02:36:25;102570.53;;;13.97;100.00
29549;BME280;16487;53.094;8.800;2023-05-29T02:38:53;102572.63;;;14.16;100.00
29549;BME280;16487;53.094;8.800;2023-05-29T02:41:20;102574.31;;;14.10;100.00
29549;BME280;16487;53.094;8.800;2023-05-29T02:43:50;102575.41;;;13.62;100.00
29549;BME280;16487;53.094;8.800;2023-05-29T02:46:21;102580.59;;;13.91;100.00
29549;BME280;16487;53.094;8.800;2023-05-29T02:48:49;102569.56;;;14.07;100.00
29549;BME280;16487;53.094;8.800;2023-05-29T02:51:16;102567.34;;;13.95;100.00
29549;BME280;16487;53.094;8.800;2023-05-29T02:53:45;102572.34;;;13.50;100.00
29549;BME280;16487;53.094;8.800;2023-05-29T02:56:13;102574.78;;;13.78;100.00
29549;BME280;16487;53.094;8.800;2023-05-29T02:58:41;102569.97;;;13.78;100.00
29549;BME280;16487;53.094;8.800;2023-05-29T03:01:08;102572.25;;;13.87;100.00
29549;BME280;16487;53.094;8.800;2023-05-29T03:03:39;102572.56;;;13.93;100.00
29549;BME280;16487;53.094;8.800;2023-05-29T03:06:07;102571.28;;;14.01;100.00
29549;BME280;16487;53.094;8.800;2023-05-29T03:08:34;102563.16;;;13.79;100.00
29549;BME280;16487;53.094;8.800;2023-05-29T03:11:05;102575.22;;;13.76;100.00
29549;BME280;16487;53.094;8.800;2023-05-29T03:13:32;102570.72;;;13.82;100.00
29549;BME280;16487;53.094;8.800;2023-05-29T03:16:05;102570.56;;;13.93;100.00
29549;BME280;16487;53.094;8.800;2023-05-29T03:18:33;102566.00;;;13.76;100.00
29549;BME280;16487;53.094;8.800;2023-05-29T03:21:01;102568.66;;;13.56;100.00
29549;BME280;16487;53.094;8.800;2023-05-29T03:23:32;102560.25;;;13.87;100.00
29549;BME280;16487;53.094;8.800;2023-05-29T03:26:00;102556.31;;;13.80;100.00
29549;BME280;16487;53.094;8.800;2023-05-29T03:28:29;102564.69;;;13.84;100.00
29549;BME280;16487;53.094;8.800;2023-05-29T03:30:58;102557.66;;;13.99;100.00
29549;BME280;16487;53.094;8.800;2023-05-29T03:33:26;102565.66;;;14.01;100.00
29549;BME280;16487;53.094;8.800;2023-05-29T03:36:10;102556.44;;;14.27;100.00
29549;BME280;16487;53.094;8.800;2023-05-29T03:38:38;102561.41;;;14.16;100.00
29549;BME280;16487;53.094;8.800;2023-05-29T03:41:07;102559.94;;;14.08;100.00
29549;BME280;16487;53.094;8.800;2023-05-29T03:43:36;102554.78;;;14.03;100.00
29549;BME280;16487;53.094;8.800;2023-05-29T03:46:03;102560.41;;;14.03;100.00
29549;BME280;16487;53.094;8.800;2023-05-29T03:48:33;102568.00;;;14.06;100.00
29549;BME280;16487;53.094;8.800;2023-05-29T03:51:01;102571.47;;;13.87;100.00
29549;BME280;16487;53.094;8.800;2023-05-29T03:53:34;102575.56;;;13.78;100.00
29549;BME280;16487;53.094;8.800;2023-05-29T03:56:14;102571.84;;;13.58;100.00
29549;BME280;16487;53.094;8.800;2023-05-29T03:58:43;102577.66;;;14.01;100.00
29549;BME280;16487;53.094;8.800;2023-05-29T04:01:16;102570.34;;;13.80;100.00
29549;BME280;16487;53.094;8.800;2023-05-29T04:03:44;102576.97;;;13.94;100.00
29549;BME280;16487;53.094;8.800;2023-05-29T04:06:12;102585.31;;;14.24;100.00
29549;BME280;16487;53.094;8.800;2023-05-29T04:08:40;102585.31;;;14.24;100.00
29549;BME280;16487;53.094;8.800;2023-05-29T04:11:08;102585.63;;;14.03;100.00
29549;BME280;16487;53.094;8.800;2023-05-29T04:13:36;102590.53;;;13.99;100.00
29549;BME280;16487;53.094;8.800;2023-05-29T04:16:07;102594.16;;;14.26;100.00
29549;BME280;16487;53.094;8.800;2023-05-29T04:18:35;102587.53;;;13.82;100.00
29549;BME280;16487;53.094;8.800;2023-05-29T04:21:02;102589.28;;;14.30;100.00
29549;BME280;16487;53.094;8.800;2023-05-29T04:23:30;102607.31;;;14.55;100.00
29549;BME280;16487;53.094;8.800;2023-05-29T04:25:57;102606.13;;;14.30;100.00
29549;BME280;16487;53.094;8.800;2023-05-29T04:28:26;102604.34;;;14.13;100.00
29549;BME280;16487;53.094;8.800;2023-05-29T04:30:55;102593.28;;;14.29;100.00
29549;BME280;16487;53.094;8.800;2023-05-29T04:33:25;102598.03;;;14.58;100.00
29549;BME280;16487;53.094;8.800;2023-05-29T04:35:52;102602.09;;;14.31;100.00
29549;BME280;16487;53.094;8.800;2023-05-29T04:38:20;102602.47;;;14.03;100.00
29549;BME280;16487;53.094;8.800;2023-05-29T04:40:48;102606.78;;;14.11;100.00
29549;BME280;16487;53.094;8.800;2023-05-29T04:43:18;102599.88;;;14.68;100.00
29549;BME280;16487;53.094;8.800;2023-05-29T04:46:06;102608.97;;;13.96;100.00
29549;BME280;16487;53.094;8.800;2023-05-29T04:48:37;102609.97;;;14.39;100.00
29549;BME280;16487;53.094;8.800;2023-05-29T04:51:04;102611.34;;;14.28;100.00
29549;BME280;16487;53.094;8.800;2023-05-29T04:53:32;102617.94;;;14.41;100.00
29549;BME280;16487;53.094;8.800;2023-05-29T04:55:59;102609.44;;;14.48;100.00
29549;BME280;16487;53.094;8.800;2023-05-29T04:58:27;102617.25;;;14.60;100.00
29549;BME280;16487;53.094;8.800;2023-05-29T05:00:54;102617.03;;;14.74;100.00
29549;BME280;16487;53.094;8.800;2023-05-29T05:03:23;102632.34;;;14.43;100.00
29549;BME280;16487;53.094;8.800;2023-05-29T05:05:52;102636.47;;;14.61;100.00
29549;BME280;16487;53.094;8.800;2023-05-29T05:08:19;102637.00;;;14.53;100.00
29549;BME280;16487;53.094;8.800;2023-05-29T05:10:47;102628.63;;;14.76;100.00
29549;BME280;16487;53.094;8.800;2023-05-29T05:13:15;102636.28;;;14.49;100.00
29549;BME280;16487;53.094;8.800;2023-05-29T05:15:43;102632.03;;;15.10;100.00
29549;BME280;16487;53.094;8.800;2023-05-29T05:18:11;102616.31;;;15.36;100.00
29549;BME280;16487;53.094;8.800;2023-05-29T05:20:39;102621.91;;;14.70;100.00
29549;BME280;16487;53.094;8.800;2023-05-29T05:23:08;102626.59;;;15.00;100.00
29549;BME280;16487;53.094;8.800;2023-05-29T05:25:36;102623.09;;;14.96;100.00
29549;BME280;16487;53.094;8.800;2023-05-29T05:28:04;102623.34;;;14.55;100.00
29549;BME280;16487;53.094;8.800;2023-05-29T05:30:33;102629.34;;;15.03;100.00
29549;BME280;16487;53.094;8.800;2023-05-29T05:33:01;102616.38;;;15.32;100.00
29549;BME280;16487;53.094;8.800;2023-05-29T05:35:28;102617.78;;;15.01;100.00
29549;BME280;16487;53.094;8.800;2023-05-29T05:37:56;102615.53;;;15.35;100.00
29549;BME280;16487;53.094;8.800;2023-05-29T05:40:26;102611.72;;;15.03;100.00
29549;BME280;16487;53.094;8.800;2023-05-29T05:43:03;102612.75;;;15.12;100.00
29549;BME280;16487;53.094;8.800;2023-05-29T05:45:50;102598.78;;;15.51;100.00
29549;BME280;16487;53.094;8.800;2023-05-29T05:48:18;102601.56;;;15.90;100.00
29549;BME280;16487;53.094;8.800;2023-05-29T05:50:46;102604.44;;;15.87;100.00
29549;BME280;16487;53.094;8.800;2023-05-29T05:53:13;102606.06;;;15.68;100.00
29549;BME280;16487;53.094;8.800;2023-05-29T05:55:42;102617.06;;;15.40;100.00
29549;BME280;16487;53.094;8.800;2023-05-29T05:58:10;102618.78;;;15.73;100.00
29549;BME280;16487;53.094;8.800;2023-05-29T06:00:39;102620.53;;;15.24;100.00
29549;BME280;16487;53.094;8.800;2023-05-29T06:03:06;102607.56;;;15.73;100.00
29549;BME280;16487;53.094;8.800;2023-05-29T06:05:48;102607.63;;;15.69;100.00
29549;BME280;16487;53.094;8.800;2023-05-29T06:08:16;102612.59;;;15.62;100.00
29549;BME280;16487;53.094;8.800;2023-05-29T06:10:45;102614.59;;;16.00;100.00
29549;BME280;16487;53.094;8.800;2023-05-29T06:13:13;102624.53;;;15.27;100.00
29549;BME280;16487;53.094;8.800;2023-05-29T06:15:45;102622.38;;;15.93;100.00
29549;BME280;16487;53.094;8.800;2023-05-29T06:18:14;102620.28;;;15.77;100.00
29549;BME280;16487;53.094;8.800;2023-05-29T06:20:41;102633.59;;;16.13;100.00
29549;BME280;16487;53.094;8.800;2023-05-29T06:23:09;102631.97;;;16.31;100.00
29549;BME280;16487;53.094;8.800;2023-05-29T06:25:37;102626.25;;;16.19;100.00
29549;BME280;16487;53.094;8.800;2023-05-29T06:28:07;102631.34;;;16.24;100.00
29549;BME280;16487;53.094;8.800;2023-05-29T06:30:35;102631.50;;;16.17;100.00
29549;BME280;16487;53.094;8.800;2023-05-29T06:33:06;102632.69;;;15.99;100.00
29549;BME280;16487;53.094;8.800;2023-05-29T06:35:35;102633.53;;;15.96;100.00
29549;BME280;16487;53.094;8.800;2023-05-29T06:38:03;102625.53;;;16.15;100.00
29549;BME280;16487;53.094;8.800;2023-05-29T06:40:31;102629.25;;;16.44;100.00
29549;BME280;16487;53.094;8.800;2023-05-29T06:43:00;102626.00;;;16.29;100.00
29549;BME280;16487;53.094;8.800;2023-05-29T06:45:55;102617.59;;;16.10;100.00
29549;BME280;16487;53.094;8.800;2023-05-29T06:48:22;102622.94;;;16.40;100.00
29549;BME280;16487;53.094;8.800;2023-05-29T06:50:50;102615.56;;;16.94;100.00
29549;BME280;16487;53.094;8.800;2023-05-29T06:53:50;102616.97;;;16.38;100.00
29549;BME280;16487;53.094;8.800;2023-05-29T06:56:17;102616.50;;;16.39;100.00
29549;BME280;16487;53.094;8.800;2023-05-29T06:58:45;102628.13;;;16.41;100.00
29549;BME280;16487;53.094;8.800;2023-05-29T07:01:15;102621.59;;;16.28;100.00
29549;BME280;16487;53.094;8.800;2023-05-29T07:03:51;102637.94;;;16.53;100.00
29549;BME280;16487;53.094;8.800;2023-05-29T07:06:19;102620.81;;;16.44;100.00
29549;BME280;16487;53.094;8.800;2023-05-29T07:08:46;102626.50;;;16.60;100.00
29549;BME280;16487;53.094;8.800;2023-05-29T07:11:14;102617.03;;;17.14;100.00
29549;BME280;16487;53.094;8.800;2023-05-29T07:13:41;102620.28;;;17.13;100.00
29549;BME280;16487;53.094;8.800;2023-05-29T07:16:09;102620.28;;;17.29;100.00
29549;BME280;16487;53.094;8.800;2023-05-29T07:18:55;102619.38;;;16.87;100.00
29549;BME280;16487;53.094;8.800;2023-05-29T07:21:25;102626.75;;;17.42;100.00
29549;BME280;16487;53.094;8.800;2023-05-29T07:23:53;102619.19;;;17.10;100.00
29549;BME280;16487;53.094;8.800;2023-05-29T07:26:21;102622.00;;;17.39;100.00
29549;BME280;16487;53.094;8.800;2023-05-29T07:28:50;102630.38;;;16.98;100.00
29549;BME280;16487;53.094;8.800;2023-05-29T07:31:17;102624.66;;;17.30;100.00
29549;BME280;16487;53.094;8.800;2023-05-29T07:33:46;102620.13;;;17.20;100.00
29549;BME280;16487;53.094;8.800;2023-05-29T07:36:16;102618.91;;;17.91;100.00
29549;BME280;16487;53.094;8.800;2023-05-29T07:38:44;102624.50;;;17.66;100.00
29549;BME280;16487;53.094;8.800;2023-05-29T07:41:15;102632.31;;;17.74;100.00
29549;BME280;16487;53.094;8.800;2023-05-29T07:43:49;102623.78;;;17.90;100.00
29549;BME280;16487;53.094;8.800;2023-05-29T07:46:18;102626.06;;;17.67;100.00
29549;BME280;16487;53.094;8.800;2023-05-29T07:48:48;102615.84;;;17.85;100.00
29549;BME280;16487;53.094;8.800;2023-05-29T07:51:17;102613.38;;;17.87;100.00
29549;BME280;16487;53.094;8.800;2023-05-29T07:53:47;102611.72;;;18.02;100.00
29549;BME280;16487;53.094;8.800;2023-05-29T07:56:15;102617.59;;;18.33;100.00
29549;BME280;16487;53.094;8.800;2023-05-29T07:58:43;102614.66;;;18.37;100.00
29549;BME280;16487;53.094;8.800;2023-05-29T08:01:11;102600.00;;;18.54;100.00
29549;BME280;16487;53.094;8.800;2023-05-29T08:03:38;102604.75;;;18.19;100.00
29549;BME280;16487;53.094;8.800;2023-05-29T08:06:23;102596.63;;;19.06;100.00
29549;BME280;16487;53.094;8.800;2023-05-29T08:08:51;102611.19;;;18.45;100.00
29549;BME280;16487;53.094;8.800;2023-05-29T08:11:19;102605.31;;;18.65;100.00
29549;BME280;16487;53.094;8.800;2023-05-29T08:13:47;102608.94;;;18.53;100.00
29549;BME280;16487;53.094;8.800;2023-05-29T08:16:16;102606.81;;;19.38;100.00
29549;BME280;16487;53.094;8.800;2023-05-29T08:18:44;102614.94;;;19.01;100.00
29549;BME280;16487;53.094;8.800;2023-05-29T08:21:11;102610.44;;;19.25;100.00
29549;BME280;16487;53.094;8.800;2023-05-29T08:23:40;102603.00;;;19.31;100.00
29549;BME280;16487;53.094;8.800;2023-05-29T08:26:08;102604.47;;;19.58;100.00
29549;BME280;16487;53.094;8.800;2023-05-29T08:28:35;102603.28;;;19.46;100.00
29549;BME280;16487;53.094;8.800;2023-05-29T08:31:03;102605.09;;;19.83;100.00
29549;BME280;16487;53.094;8.800;2023-05-29T08:33:30;102593.59;;;19.56;100.00
29549;BME280;16487;53.094;8.800;2023-05-29T08:35:58;102621.94;;;19.44;100.00
29549;BME280;16487;53.094;8.800;2023-05-29T08:38:26;102615.75;;;19.36;100.00
29549;BME280;16487;53.094;8.800;2023-05-29T08:40:56;102597.66;;;19.77;100.00
29549;BME280;16487;53.094;8.800;2023-05-29T08:43:25;102597.22;;;20.09;100.00
29549;BME280;16487;53.094;8.800;2023-05-29T08:45:59;102599.69;;;19.98;100.00
29549;BME280;16487;53.094;8.800;2023-05-29T08:48:28;102591.84;;;20.41;100.00
29549;BME280;16487;53.094;8.800;2023-05-29T08:50:57;102589.81;;;20.42;100.00
29549;BME280;16487;53.094;8.800;2023-05-29T08:53:25;102601.78;;;20.06;100.00
29549;BME280;16487;53.094;8.800;2023-05-29T08:55:54;102603.94;;;20.02;100.00
29549;BME280;16487;53.094;8.800;2023-05-29T08:58:22;102608.19;;;19.98;100.00
29549;BME280;16487;53.094;8.800;2023-05-29T09:00:50;102602.72;;;20.03;100.00
29549;BME280;16487;53.094;8.800;2023-05-29T09:03:17;102597.75;;;20.56;100.00
29549;BME280;16487;53.094;8.800;2023-05-29T09:05:45;102600.53;;;20.38;100.00
29549;BME280;16487;53.094;8.800;2023-05-29T09:08:13;102610.41;;;19.81;100.00
29549;BME280;16487;53.094;8.800;2023-05-29T09:10:40;102600.97;;;20.27;100.00
29549;BME280;16487;53.094;8.800;2023-05-29T09:13:09;102608.16;;;20.19;100.00
29549;BME280;16487;53.094;8.800;2023-05-29T09:15:37;102603.66;;;20.40;100.00
29549;BME280;16487;53.094;8.800;2023-05-29T09:18:05;102596.53;;;20.26;100.00
29549;BME280;16487;53.094;8.800;2023-05-29T09:20:32;102594.56;;;20.14;100.00
29549;BME280;16487;53.094;8.800;2023-05-29T09:23:01;102583.69;;;21.01;100.00
29549;BME280;16487;53.094;8.800;2023-05-29T09:25:29;102575.59;;;22.32;100.00
29549;BME280;16487;53.094;8.800;2023-05-29T09:27:58;102548.94;;;23.82;100.00
29549;BME280;16487;53.094;8.800;2023-05-29T09:30:36;102570.44;;;22.78;100.00
29549;BME280;16487;53.094;8.800;2023-05-29T09:33:04;102577.03;;;22.84;100.00
29549;BME280;16487;53.094;8.800;2023-05-29T09:35:38;102544.66;;;24.56;100.00
29549;BME280;16487;53.094;8.800;2023-05-29T09:38:06;102561.13;;;23.39;100.00
29549;BME280;16487;53.094;8.800;2023-05-29T09:40:37;102567.50;;;23.10;100.00
29549;BME280;16487;53.094;8.800;2023-05-29T09:43:05;102561.78;;;22.96;100.00
29549;BME280;16487;53.094;8.800;2023-05-29T09:45:36;102535.41;;;24.06;100.00
29549;BME280;16487;53.094;8.800;2023-05-29T09:48:05;102534.59;;;23.91;100.00
29549;BME280;16487;53.094;8.800;2023-05-29T09:50:33;102550.13;;;23.61;100.00
29549;BME280;16487;53.094;8.800;2023-05-29T09:53:01;102536.94;;;24.76;100.00
29549;BME280;16487;53.094;8.800;2023-05-29T09:55:29;102549.81;;;23.88;100.00
29549;BME280;16487;53.094;8.800;2023-05-29T09:57:58;102569.38;;;23.13;100.00
29549;BME280;16487;53.094;8.800;2023-05-29T10:00:26;102563.28;;;23.88;100.00
29549;BME280;16487;53.094;8.800;2023-05-29T10:02:55;102546.41;;;24.33;100.00
29549;BME280;16487;53.094;8.800;2023-05-29T10:05:23;102567.78;;;23.50;100.00
29549;BME280;16487;53.094;8.800;2023-05-29T10:07:53;102550.00;;;23.84;100.00
29549;BME280;16487;53.094;8.800;2023-05-29T10:10:23;102552.88;;;23.70;100.00
29549;BME280;16487;53.094;8.800;2023-05-29T10:12:53;102554.81;;;23.35;100.00
29549;BME280;16487;53.094;8.800;2023-05-29T10:15:23;102543.00;;;24.29;100.00
29549;BME280;16487;53.094;8.800;2023-05-29T10:17:54;102552.50;;;23.48;100.00
29549;BME280;16487;53.094;8.800;2023-05-29T10:20:26;102545.50;;;23.78;100.00
29549;BME280;16487;53.094;8.800;2023-05-29T10:22:56;102524.28;;;24.43;100.00
29549;BME280;16487;53.094;8.800;2023-05-29T10:25:27;102522.75;;;24.27;100.00
29549;BME280;16487;53.094;8.800;2023-05-29T10:27:55;102526.41;;;23.99;100.00
29549;BME280;16487;53.094;8.800;2023-05-29T10:30:29;102546.81;;;23.24;100.00
29549;BME280;16487;53.094;8.800;2023-05-29T10:33:35;102532.41;;;24.50;100.00
29549;BME280;16487;53.094;8.800;2023-05-29T10:36:10;102534.09;;;24.42;100.00
29549;BME280;16487;53.094;8.800;2023-05-29T10:38:41;102523.78;;;23.95;100.00
29549;BME280;16487;53.094;8.800;2023-05-29T10:41:29;102524.97;;;24.72;100.00
29549;BME280;16487;53.094;8.800;2023-05-29T10:43:57;102518.69;;;24.14;100.00
29549;BME280;16487;53.094;8.800;2023-05-29T10:47:01;102515.31;;;25.10;100.00
29549;BME280;16487;53.094;8.800;2023-05-29T10:49:29;102523.03;;;24.64;100.00
29549;BME280;16487;53.094;8.800;2023-05-29T10:51:58;102526.84;;;24.06;100.00
29549;BME280;16487;53.094;8.800;2023-05-29T10:54:26;102523.31;;;24.86;100.00
29549;BME280;16487;53.094;8.800;2023-05-29T10:56:55;102516.03;;;25.05;100.00
29549;BME280;16487;53.094;8.800;2023-05-29T10:59:23;102513.88;;;25.71;100.00
29549;BME280;16487;53.094;8.800;2023-05-29T11:01:55;102494.25;;;26.74;100.00
29549;BME280;16487;53.094;8.800;2023-05-29T11:04:30;102493.31;;;26.46;100.00
29549;BME280;16487;53.094;8.800;2023-05-29T11:06:59;102502.56;;;25.31;100.00
29549;BME280;16487;53.094;8.800;2023-05-29T11:09:31;102505.50;;;24.71;100.00
29549;BME280;16487;53.094;8.800;2023-05-29T11:12:16;102513.91;;;24.25;100.00
29549;BME280;16487;53.094;8.800;2023-05-29T11:14:47;102505.59;;;25.48;100.00
29549;BME280;16487;53.094;8.800;2023-05-29T11:17:31;102510.91;;;24.89;100.00
29549;BME280;16487;53.094;8.800;2023-05-29T11:20:02;102514.78;;;24.31;100.00
29549;BME280;16487;53.094;8.800;2023-05-29T11:22:45;102499.25;;;25.64;100.00
29549;BME280;16487;53.094;8.800;2023-05-29T11:25:15;102508.47;;;25.79;100.00
29549;BME280;16487;53.094;8.800;2023-05-29T11:27:44;102496.88;;;25.93;100.00
29549;BME280;16487;53.094;8.800;2023-05-29T11:30:12;102507.09;;;24.98;100.00
29549;BME280;16487;53.094;8.800;2023-05-29T11:32:40;102493.88;;;26.03;100.00
29549;BME280;16487;53.094;8.800;2023-05-29T11:35:09;102522.34;;;24.34;100.00
29549;BME280;16487;53.094;8.800;2023-05-29T11:37:39;102497.19;;;26.01;100.00
29549;BME280;16487;53.094;8.800;2023-05-29T11:40:07;102514.13;;;24.76;100.00
29549;BME280;16487;53.094;8.800;2023-05-29T11:42:41;102482.84;;;25.59;100.00
29549;BME280;16487;53.094;8.800;2023-05-29T11:45:12;102492.06;;;26.05;100.00
29549;BME280;16487;53.094;8.800;2023-05-29T11:47:53;102461.38;;;27.78;100.00
29549;BME280;16487;53.094;8.800;2023-05-29T11:50:22;102486.19;;;26.25;100.00
29549;BME280;16487;53.094;8.800;2023-05-29T11:52:52;102461.22;;;28.50;100.00
29549;BME280;16487;53.094;8.800;2023-05-29T11:55:20;102488.84;;;26.82;100.00
29549;BME280;16487;53.094;8.800;2023-05-29T11:57:47;102474.59;;;28.26;100.00
29549;BME280;16487;53.094;8.800;2023-05-29T12:00:16;102494.63;;;26.03;100.00
29549;BME280;16487;53.094;8.800;2023-05-29T12:02:43;102506.09;;;25.01;100.00
29549;BME280;16487;53.094;8.800;2023-05-29T12:05:11;102492.19;;;25.59;100.00
29549;BME280;16487;53.094;8.800;2023-05-29T12:07:38;102506.16;;;26.14;100.00
29549;BME280;16487;53.094;8.800;2023-05-29T12:10:11;102500.31;;;26.87;100.00
29549;BME280;16487;53.094;8.800;2023-05-29T12:12:39;102504.47;;;25.14;100.00
29549;BME280;16487;53.094;8.800;2023-05-29T12:15:08;102488.47;;;27.50;100.00
29549;BME280;16487;53.094;8.800;2023-05-29T12:17:36;102480.91;;;27.74;100.00
29549;BME280;16487;53.094;8.800;2023-05-29T12:20:04;102485.84;;;27.52;100.00
29549;BME280;16487;53.094;8.800;2023-05-29T12:22:36;102464.47;;;28.19;100.00
29549;BME280;16487;53.094;8.800;2023-05-29T12:25:05;102504.34;;;25.85;100.00
29549;BME280;16487;53.094;8.800;2023-05-29T12:27:34;102497.28;;;26.12;100.00
29549;BME280;16487;53.094;8.800;2023-05-29T12:30:03;102494.13;;;27.17;100.00
29549;BME280;16487;53.094;8.800;2023-05-29T12:32:35;102494.38;;;26.49;100.00
29549;BME280;16487;53.094;8.800;2023-05-29T12:35:10;102505.75;;;26.85;100.00
29549;BME280;16487;53.094;8.800;2023-05-29T12:37:42;102491.44;;;26.91;100.00
29549;BME280;16487;53.094;8.800;2023-05-29T12:40:12;102496.09;;;26.77;100.00
29549;BME280;16487;53.094;8.800;2023-05-29T12:42:42;102494.34;;;27.02;100.00
29549;BME280;16487;53.094;8.800;2023-05-29T12:45:11;102484.03;;;27.38;100.00
29549;BME280;16487;53.094;8.800;2023-05-29T12:47:44;102489.16;;;27.17;100.00
29549;BME280;16487;53.094;8.800;2023-05-29T12:50:20;102480.66;;;27.89;100.00
29549;BME280;16487;53.094;8.800;2023-05-29T12:52:56;102460.69;;;28.46;100.00
29549;BME280;16487;53.094;8.800;2023-05-29T12:55:24;102472.72;;;28.39;100.00